Time;durP1;ratioP1;P1;durP2;ratioP2;P2;SDS_P1;SDS_P2;PMS_P1;PMS_P2;Temp;Humidity;BMP_temperature;BMP_pressure;BME280_temperature;BME280_humidity;BME280_pressure;Samples;Min_cycle;Max_cycle;Signal;HPM_P1;HPM_P2
2024/02/19 00:00:11;;;;;;;;;;;;;;;;;;4950164;28;92068;-89
2024/02/19 00:02:36;;;;;;;;;;;;;;;;;;4960994;28;89835;-88
2024/02/19 00:05:03;;;;;;;;;;;;;;;;;;4964619;28;89540;-90
2024/02/19 00:07:28;;;;;;;;;;;;;;;;;;4954136;28;90834;-89
2024/02/19 00:09:53;;;;;;;;;;;;;;;;;;4950697;28;90324;-89
2024/02/19 00:12:18;;;;;;;;;;;;;;;;;;4950009;28;91356;-89
2024/02/19 00:14:44;;;;;;;;;;;;;;;;;;4953966;28;90737;-90
2024/02/19 00:17:09;;;;;;;;;;;;;;;;;;4952612;28;89462;-90
2024/02/19 00:19:34;;;;;;;;;;;;;;;;;;4951671;28;89364;-90
2024/02/19 00:22:00;;;;;;;;;;;;;;;;;;4951899;28;89395;-89
2024/02/19 00:24:25;;;;;;;;;;;;;;;;;;4958013;28;92376;-90
2024/02/19 00:26:50;;;;;;;;;;;;;;;;;;4971735;28;89231;-91
2024/02/19 00:29:16;;;;;;;;;;;;;;;;;;4958715;28;90815;-89
2024/02/19 00:31:41;;;;;;;;;;;;;;;;;;4966896;28;92136;-91
2024/02/19 00:34:06;;;;;;;;;;;;;;;;;;4950210;28;89084;-90
2024/02/19 00:36:31;;;;;;;;;;;;;;;;;;4954335;28;88985;-90
2024/02/19 00:38:57;;;;;;;;;;;;;;;;;;4951319;28;89363;-91
2024/02/19 00:41:22;;;;;;;;;;;;;;;;;;4950683;28;89072;-91
2024/02/19 00:43:47;;;;;;;;;;;;;;;;;;4944700;28;89585;-90
2024/02/19 00:46:12;;;;;;;;;;;;;;;;;;4949538;28;92259;-90
2024/02/19 00:48:37;;;;;;;;;;;;;;;;;;4934627;28;90875;-87
2024/02/19 00:51:03;;;;;;;;;;;;;;;;;;4970062;28;90974;-90
2024/02/19 00:53:28;;;;;;;;;;;;;;;;;;4954314;28;89157;-91
2024/02/19 00:55:53;;;;;;;;;;;;;;;;;;4956832;28;90814;-89
2024/02/19 00:58:19;;;;;;;;;;;;;;;;;;4954264;28;89235;-90
2024/02/19 01:00:44;;;;;;;;;;;;;;;;;;4954950;28;89663;-90
2024/02/19 01:03:11;;;;;;;;;;;;;;;;;;4953454;28;89674;-91
2024/02/19 01:05:36;;;;;;;;;;;;;;;;;;4969924;28;89535;-89
2024/02/19 01:08:01;;;;;;;;;;;;;;;;;;4970077;28;88993;-90
2024/02/19 01:10:26;;;;;;;;;;;;;;;;;;4956100;28;89117;-92
2024/02/19 01:12:52;;;;;;;;;;;;;;;;;;4954002;28;89367;-91
2024/02/19 01:15:17;;;;;;;;;;;;;;;;;;4953121;28;89389;-91
2024/02/19 01:17:43;;;;;;;;;;;;;;;;;;4957511;28;90033;-91
2024/02/19 01:20:09;;;;;;;;;;;;;;;;;;4966538;28;90194;-90
2024/02/19 01:22:34;;;;;;;;;;;;;;;;;;4954099;28;92070;-89
2024/02/19 01:25:00;;;;;;;;;;;;;;;;;;4954539;28;89315;-90
2024/02/19 01:27:26;;;;;;;;;;;;;;;;;;4954531;28;89298;-90
2024/02/19 01:29:51;;;;;;;;;;;;;;;;;;4953512;28;89608;-91
2024/02/19 01:32:16;;;;;;;;;;;;;;;;;;4953846;28;89169;-89
2024/02/19 01:34:41;;;;;;;;;;;;;;;;;;4953231;28;89338;-90
2024/02/19 01:37:07;;;;;;;;;;;;;;;;;;4953895;28;89319;-91
2024/02/19 01:39:35;;;;;;;;;;;;;;;;;;4955914;28;89300;-89
2024/02/19 01:42:00;;;;;;;;;;;;;;;;;;4953408;28;89655;-91
2024/02/19 01:44:25;;;;;;;;;;;;;;;;;;4953547;28;89462;-92
2024/02/19 01:46:51;;;;;;;;;;;;;;;;;;4953527;28;89077;-91
2024/02/19 01:49:17;;;;;;;;;;;;;;;;;;4953123;28;89595;-89
2024/02/19 01:51:42;;;;;;;;;;;;;;;;;;4952936;28;90879;-88
2024/02/19 01:54:09;;;;;;;;;;;;;;;;;;4953989;28;89475;-90
2024/02/19 01:56:35;;;;;;;;;;;;;;;;;;4949511;28;92262;-90
2024/02/19 01:59:01;;;;;;;;;;;;;;;;;;4937073;28;89217;-89
2024/02/19 02:01:27;;;;;;;;;;;;;;;;;;4954341;28;89221;-89
2024/02/19 02:03:52;;;;;;;;;;;;;;;;;;4938550;28;89060;-90
2024/02/19 02:06:17;;;;;;;;;;;;;;;;;;4954316;28;89468;-89
2024/02/19 02:08:43;;;;;;;;;;;;;;;;;;4950639;28;89683;-84
2024/02/19 02:11:09;;;;;;;;;;;;;;;;;;4980951;28;92815;-88
2024/02/19 02:13:34;;;;;;;;;;;;;;;;;;4963320;28;89445;-91
2024/02/19 02:16:03;;;;;;;;;;;;;;;;;;4956762;28;89420;-92
2024/02/19 02:18:30;;;;;;;;;;;;;;;;;;4954941;28;88859;-92
2024/02/19 02:20:55;;;;;;;;;;;;;;;;;;4953187;28;90300;-90
2024/02/19 02:23:21;;;;;;;;;;;;;;;;;;4958255;28;88834;-91
2024/02/19 02:25:47;;;;;;;;;;;;;;;;;;4953954;28;88962;-91
2024/02/19 02:28:12;;;;;;;;;;;;;;;;;;4952985;28;91350;-88
2024/02/19 02:30:38;;;;;;;;;;;;;;;;;;4953577;28;90953;-90
2024/02/19 02:33:03;;;;;;;;;;;;;;;;;;4954082;28;89187;-91
2024/02/19 02:35:29;;;;;;;;;;;;;;;;;;4953278;28;89511;-90
2024/02/19 02:37:54;;;;;;;;;;;;;;;;;;4954106;28;89731;-87
2024/02/19 02:40:19;;;;;;;;;;;;;;;;;;4953600;28;89282;-91
2024/02/19 02:42:44;;;;;;;;;;;;;;;;;;4953678;28;89070;-90
2024/02/19 02:45:10;;;;;;;;;;;;;;;;;;4956523;28;88960;-91
2024/02/19 02:47:35;;;;;;;;;;;;;;;;;;4953562;28;89612;-91
2024/02/19 02:50:00;;;;;;;;;;;;;;;;;;4952929;28;89648;-92
2024/02/19 02:52:26;;;;;;;;;;;;;;;;;;4953981;28;88981;-92
2024/02/19 02:54:51;;;;;;;;;;;;;;;;;;4953378;28;89494;-87
2024/02/19 02:57:17;;;;;;;;;;;;;;;;;;4952967;28;89220;-92
2024/02/19 02:59:42;;;;;;;;;;;;;;;;;;4952476;28;89120;-91
2024/02/19 03:02:07;;;;;;;;;;;;;;;;;;4953413;28;88953;-89
2024/02/19 03:04:32;;;;;;;;;;;;;;;;;;4956578;28;89690;-89
2024/02/19 03:06:58;;;;;;;;;;;;;;;;;;4953133;28;89579;-85
2024/02/19 03:09:23;;;;;;;;;;;;;;;;;;4952562;28;89161;-91
2024/02/19 03:11:48;;;;;;;;;;;;;;;;;;4951037;28;89630;-90
2024/02/19 03:14:14;;;;;;;;;;;;;;;;;;4952600;28;89537;-90
2024/02/19 03:16:39;;;;;;;;;;;;;;;;;;4952801;28;89177;-91
2024/02/19 03:19:07;;;;;;;;;;;;;;;;;;4942652;28;88942;-92
2024/02/19 03:21:32;;;;;;;;;;;;;;;;;;4950633;28;94106;-90
2024/02/19 03:23:57;;;;;;;;;;;;;;;;;;4952617;28;89807;-88
2024/02/19 03:26:24;;;;;;;;;;;;;;;;;;4955557;28;89393;-92
2024/02/19 03:28:49;;;;;;;;;;;;;;;;;;4951541;28;92189;-90
2024/02/19 03:31:14;;;;;;;;;;;;;;;;;;4952030;28;89127;-90
2024/02/19 03:33:40;;;;;;;;;;;;;;;;;;4952773;28;89600;-92
2024/02/19 03:36:06;;;;;;;;;;;;;;;;;;4950886;28;90622;-90
2024/02/19 03:38:31;;;;;;;;;;;;;;;;;;4951075;28;91172;-88
2024/02/19 03:40:56;;;;;;;;;;;;;;;;;;4952097;28;89510;-91
2024/02/19 03:43:21;;;;;;;;;;;;;;;;;;4952753;28;89174;-90
2024/02/19 03:45:47;;;;;;;;;;;;;;;;;;4952347;28;89068;-89
2024/02/19 03:48:12;;;;;;;;;;;;;;;;;;4953212;28;92434;-92
2024/02/19 03:50:37;;;;;;;;;;;;;;;;;;4952374;28;88970;-87
2024/02/19 03:53:02;;;;;;;;;;;;;;;;;;4950920;28;91212;-92
2024/02/19 03:55:27;;;;;;;;;;;;;;;;;;4952614;28;89440;-89
2024/02/19 03:57:53;;;;;;;;;;;;;;;;;;4952213;28;89012;-89
2024/02/19 04:00:18;;;;;;;;;;;;;;;;;;4952850;28;89297;-89
2024/02/19 04:02:43;;;;;;;;;;;;;;;;;;4952063;28;89259;-90
2024/02/19 04:05:09;;;;;;;;;;;;;;;;;;4952696;28;89094;-92
2024/02/19 04:07:34;;;;;;;;;;;;;;;;;;4952225;28;89045;-93
2024/02/19 04:09:59;;;;;;;;;;;;;;;;;;4954576;28;89089;-90
2024/02/19 04:12:24;;;;;;;;;;;;;;;;;;4950716;28;91540;-92
2024/02/19 04:14:49;;;;;;;;;;;;;;;;;;4951787;28;89756;-83
2024/02/19 04:17:15;;;;;;;;;;;;;;;;;;4950167;28;89485;-85
2024/02/19 04:19:40;;;;;;;;;;;;;;;;;;4942117;28;89130;-84
2024/02/19 04:22:05;;;;;;;;;;;;;;;;;;4938658;28;89862;-84
2024/02/19 04:24:32;;;;;;;;;;;;;;;;;;4952635;28;90635;-84
2024/02/19 04:26:57;;;;;;;;;;;;;;;;;;4947384;28;91709;-87
2024/02/19 04:29:23;;;;;;;;;;;;;;;;;;4950554;28;91240;-80
2024/02/19 04:31:48;;;;;;;;;;;;;;;;;;4947639;28;89990;-80
2024/02/19 04:34:14;;;;;;;;;;;;;;;;;;4945537;28;89274;-80
2024/02/19 04:36:40;;;;;;;;;;;;;;;;;;4940611;28;89297;-82
2024/02/19 04:39:06;;;;;;;;;;;;;;;;;;4941127;28;90636;-82
2024/02/19 04:41:31;;;;;;;;;;;;;;;;;;4942163;28;90738;-85
2024/02/19 04:43:56;;;;;;;;;;;;;;;;;;4941165;28;90572;-80
2024/02/19 04:46:22;;;;;;;;;;;;;;;;;;4938242;28;89488;-86
2024/02/19 04:48:47;;;;;;;;;;;;;;;;;;4942029;28;92936;-84
2024/02/19 04:51:12;;;;;;;;;;;;;;;;;;4947282;28;90613;-83
2024/02/19 04:53:37;;;;;;;;;;;;;;;;;;4958960;28;90106;-81
2024/02/19 04:56:03;;;;;;;;;;;;;;;;;;4943489;28;89507;-81
2024/02/19 04:58:28;;;;;;;;;;;;;;;;;;4945637;28;89453;-84
2024/02/19 05:00:53;;;;;;;;;;;;;;;;;;4940242;28;90506;-84
2024/02/19 05:03:19;;;;;;;;;;;;;;;;;;4939478;28;89211;-82
2024/02/19 05:05:44;;;;;;;;;;;;;;;;;;4943531;28;89204;-84
2024/02/19 05:08:09;;;;;;;;;;;;;;;;;;4941751;28;89418;-87
2024/02/19 05:10:35;;;;;;;;;;;;;;;;;;4939592;28;90390;-82
2024/02/19 05:13:00;;;;;;;;;;;;;;;;;;4940462;28;89488;-81
2024/02/19 05:15:25;;;;;;;;;;;;;;;;;;4940419;28;89049;-84
2024/02/19 05:17:51;;;;;;;;;;;;;;;;;;4943517;28;90392;-85
2024/02/19 05:20:16;;;;;;;;;;;;;;;;;;4944489;28;90322;-83
2024/02/19 05:22:42;;;;;;;;;;;;;;;;;;4940855;28;90366;-80
2024/02/19 05:25:07;;;;;;;;;;;;;;;;;;4939926;28;89491;-84
2024/02/19 05:27:32;;;;;;;;;;;;;;;;;;4947634;28;89550;-83
2024/02/19 05:29:58;;;;;;;;;;;;;;;;;;4942178;28;90034;-84
2024/02/19 05:32:23;;;;;;;;;;;;;;;;;;4945291;28;89621;-86
2024/02/19 05:34:49;;;;;;;;;;;;;;;;;;4943090;28;89276;-84
2024/02/19 05:37:14;;;;;;;;;;;;;;;;;;4946823;28;89871;-82
2024/02/19 05:39:40;;;;;;;;;;;;;;;;;;4934336;28;91879;-80
2024/02/19 05:42:05;;;;;;;;;;;;;;;;;;4943065;28;89833;-84
2024/02/19 05:44:30;;;;;;;;;;;;;;;;;;4948369;28;90532;-86
2024/02/19 05:46:56;;;;;;;;;;;;;;;;;;4939617;28;89187;-83
2024/02/19 05:49:21;;;;;;;;;;;;;;;;;;4933357;28;91364;-82
2024/02/19 05:51:46;;;;;;;;;;;;;;;;;;4947151;28;92636;-83
2024/02/19 05:54:11;;;;;;;;;;;;;;;;;;4943117;28;91709;-82
2024/02/19 05:56:37;;;;;;;;;;;;;;;;;;4949035;28;89584;-83
2024/02/19 05:59:03;;;;;;;;;;;;;;;;;;4941488;28;89134;-83
2024/02/19 06:01:28;;;;;;;;;;;;;;;;;;4943081;28;89083;-83
2024/02/19 06:03:53;;;;;;;;;;;;;;;;;;4940795;28;90055;-86
2024/02/19 06:06:19;;;;;;;;;;;;;;;;;;4943403;28;90424;-84
2024/02/19 06:08:44;;;;;;;;;;;;;;;;;;4937741;28;90246;-86
2024/02/19 06:11:09;;;;;;;;;;;;;;;;;;4942369;28;92297;-80
2024/02/19 06:13:34;;;;;;;;;;;;;;;;;;4940876;28;89940;-81
2024/02/19 06:16:00;;;;;;;;;;;;;;;;;;4947137;28;89093;-86
2024/02/19 06:18:25;;;;;;;;;;;;;;;;;;4953600;28;89096;-80
2024/02/19 06:20:51;;;;;;;;;;;;;;;;;;4949784;28;90716;-82
2024/02/19 06:23:16;;;;;;;;;;;;;;;;;;4941765;28;89402;-85
2024/02/19 06:25:44;;;;;;;;;;;;;;;;;;4955254;28;90184;-84
2024/02/19 06:28:09;;;;;;;;;;;;;;;;;;4950811;28;90563;-84
2024/02/19 06:30:35;;;;;;;;;;;;;;;;;;4949851;28;91078;-89
2024/02/19 06:33:00;;;;;;;;;;;;;;;;;;4945745;28;89027;-90
2024/02/19 06:35:26;;;;;;;;;;;;;;;;;;4945046;28;89888;-93
2024/02/19 06:37:51;;;;;;;;;;;;;;;;;;4963583;28;92129;-91
2024/02/19 06:40:16;;;;;;;;;;;;;;;;;;4938628;28;92478;-92
2024/02/19 06:42:41;;;;;;;;;;;;;;;;;;4948263;28;91745;-86
2024/02/19 06:45:07;;;;;;;;;;;;;;;;;;4941747;28;89161;-80
2024/02/19 06:47:32;;;;;;;;;;;;;;;;;;4944752;28;89893;-80
2024/02/19 06:49:58;;;;;;;;;;;;;;;;;;4940916;28;92808;-80
2024/02/19 06:52:23;;;;;;;;;;;;;;;;;;4939084;28;89108;-84
2024/02/19 06:54:51;;;;;;;;;;;;;;;;;;4946917;28;89198;-93
2024/02/19 06:57:17;;;;;;;;;;;;;;;;;;4940457;28;92462;-86
2024/02/19 06:59:42;;;;;;;;;;;;;;;;;;4943221;28;89448;-86
2024/02/19 07:02:07;;;;;;;;;;;;;;;;;;4943054;28;92157;-85
2024/02/19 07:04:34;;;;;;;;;;;;;;;;;;4947768;28;89621;-86
2024/02/19 07:07:00;;;;;;;;;;;;;;;;;;4936015;28;90726;-87
2024/02/19 07:09:25;;;;;;;;;;;;;;;;;;4942797;28;89456;-85
2024/02/19 07:11:50;;;;;;;;;;;;;;;;;;4951848;28;89074;-83
2024/02/19 07:14:16;;;;;;;;;;;;;;;;;;4946364;28;89167;-87
2024/02/19 07:16:41;;;;;;;;;;;;;;;;;;4942094;28;89848;-85
2024/02/19 07:19:07;;;;;;;;;;;;;;;;;;4945049;28;89563;-87
2024/02/19 07:21:32;;;;;;;;;;;;;;;;;;4945233;28;89135;-83
2024/02/19 07:23:58;;;;;;;;;;;;;;;;;;4944730;28;89228;-85
2024/02/19 07:26:23;;;;;;;;;;;;;;;;;;4948813;28;91365;-86
2024/02/19 07:28:48;;;;;;;;;;;;;;;;;;4934817;28;89101;-86
2024/02/19 07:31:13;;;;;;;;;;;;;;;;;;4940060;28;89654;-86
2024/02/19 07:33:39;;;;;;;;;;;;;;;;;;4939516;28;89205;-87
2024/02/19 07:36:04;;;;;;;;;;;;;;;;;;4955012;28;91955;-86
2024/02/19 07:38:29;;;;;;;;;;;;;;;;;;4945711;28;89323;-85
2024/02/19 07:40:55;;;;;;;;;;;;;;;;;;4949050;28;89134;-85
2024/02/19 07:43:20;;;;;;;;;;;;;;;;;;4951418;28;89480;-84
2024/02/19 07:45:45;;;;;;;;;;;;;;;;;;4937394;28;89302;-86
2024/02/19 07:48:11;;;;;;;;;;;;;;;;;;4943747;28;89391;-85
2024/02/19 07:50:36;;;;;;;;;;;;;;;;;;4943017;28;89690;-85
2024/02/19 07:53:01;;;;;;;;;;;;;;;;;;4940237;28;89653;-84
2024/02/19 07:55:27;;;;;;;;;;;;;;;;;;4942382;28;90688;-84
2024/02/19 07:57:52;;;;;;;;;;;;;;;;;;4942861;28;89778;-85
2024/02/19 08:00:18;;;;;;;;;;;;;;;;;;4941020;28;90384;-83
2024/02/19 08:02:43;;;;;;;;;;;;;;;;;;4941190;28;92476;-83
2024/02/19 08:05:08;;;;;;;;;;;;;;;;;;4943493;28;92303;-84
2024/02/19 08:07:33;;;;;;;;;;;;;;;;;;4939168;28;89559;-85
2024/02/19 08:09:59;;;;;;;;;;;;;;;;;;4940007;28;89320;-82
2024/02/19 08:12:24;;;;;;;;;;;;;;;;;;4946838;28;90119;-85
2024/02/19 08:14:50;;;;;;;;;;;;;;;;;;4945498;28;89590;-86
2024/02/19 08:17:15;;;;;;;;;;;;;;;;;;4946040;28;92413;-85
2024/02/19 08:19:40;;;;;;;;;;;;;;;;;;4935141;28;89111;-85
2024/02/19 08:22:07;;;;;;;;;;;;;;;;;;4940201;28;90690;-85
2024/02/19 08:24:32;;;;;;;;;;;;;;;;;;4931107;28;92149;-86
2024/02/19 08:26:57;;;;;;;;;;;;;;;;;;4942264;28;90461;-84
2024/02/19 08:29:23;;;;;;;;;;;;;;;;;;4960215;28;91872;-83
2024/02/19 08:31:50;;;;;;;;;;;;;;;;;;4956736;28;89598;-83
2024/02/19 08:34:15;;;;;;;;;;;;;;;;;;4938241;28;90747;-86
2024/02/19 08:36:40;;;;;;;;;;;;;;;;;;4944668;28;89921;-86
2024/02/19 08:39:06;;;;;;;;;;;;;;;;;;4942969;28;89248;-86
2024/02/19 08:41:31;;;;;;;;;;;;;;;;;;4946797;28;89521;-83
2024/02/19 08:43:57;;;;;;;;;;;;;;;;;;4943225;28;92193;-84
2024/02/19 08:46:22;;;;;;;;;;;;;;;;;;4939790;28;89862;-84
2024/02/19 08:48:48;;;;;;;;;;;;;;;;;;4945199;28;89488;-84
2024/02/19 08:51:14;;;;;;;;;;;;;;;;;;4941193;28;89340;-86
2024/02/19 08:53:39;;;;;;;;;;;;;;;;;;4947496;28;90061;-86
2024/02/19 08:56:05;;;;;;;;;;;;;;;;;;4940326;28;90711;-86
2024/02/19 08:58:31;;;;;;;;;;;;;;;;;;4947335;28;89524;-87
2024/02/19 09:00:57;;;;;;;;;;;;;;;;;;4941672;28;90448;-87
2024/02/19 09:03:23;;;;;;;;;;;;;;;;;;4937215;28;90216;-83
2024/02/19 09:05:48;;;;;;;;;;;;;;;;;;4943077;28;89414;-82
2024/02/19 09:08:13;;;;;;;;;;;;;;;;;;4940032;28;92437;-81
2024/02/19 09:10:39;;;;;;;;;;;;;;;;;;4947534;28;89574;-86
2024/02/19 09:13:06;;;;;;;;;;;;;;;;;;4943123;28;89935;-85
2024/02/19 09:15:31;;;;;;;;;;;;;;;;;;4946087;28;89639;-82
2024/02/19 09:17:56;;;;;;;;;;;;;;;;;;4946265;28;90981;-85
2024/02/19 09:20:22;;;;;;;;;;;;;;;;;;4945080;28;89497;-85
2024/02/19 09:22:47;;;;;;;;;;;;;;;;;;4945821;28;89398;-85
2024/02/19 09:25:13;;;;;;;;;;;;;;;;;;4945466;28;89132;-85
2024/02/19 09:27:38;;;;;;;;;;;;;;;;;;4948275;28;92592;-84
2024/02/19 09:30:04;;;;;;;;;;;;;;;;;;4942104;28;89657;-86
2024/02/19 09:32:29;;;;;;;;;;;;;;;;;;4953373;28;92516;-84
2024/02/19 09:34:55;;;;;;;;;;;;;;;;;;4937965;28;89017;-86
2024/02/19 09:37:24;;;;;;;;;;;;;;;;;;4938767;28;89069;-86
2024/02/19 09:39:51;;;;;;;;;;;;;;;;;;4937110;28;90787;-88
2024/02/19 09:42:17;;;;;;;;;;;;;;;;;;4937616;28;89665;-88
2024/02/19 09:44:42;;;;;;;;;;;;;;;;;;4942604;28;90651;-88
2024/02/19 09:47:09;;;;;;;;;;;;;;;;;;4941661;28;89475;-88
2024/02/19 09:49:35;;;;;;;;;;;;;;;;;;4939444;28;89263;-88
2024/02/19 09:52:02;;;;;;;;;;;;;;;;;;4964977;28;91294;-85
2024/02/19 09:54:28;;;;;;;;;;;;;;;;;;4944145;28;92455;-85
2024/02/19 09:56:56;;;;;;;;;;;;;;;;;;4941768;28;89181;-87
2024/02/19 09:59:21;;;;;;;;;;;;;;;;;;4944886;28;92464;-86
2024/02/19 10:01:47;;;;;;;;;;;;;;;;;;4944628;28;89614;-87
2024/02/19 10:04:14;;;;;;;;;;;;;;;;;;4945513;28;90760;-86
2024/02/19 10:06:40;;;;;;;;;;;;;;;;;;4947182;28;89573;-87
2024/02/19 10:09:08;;;;;;;;;;;;;;;;;;4945335;28;89372;-88
2024/02/19 10:11:34;;;;;;;;;;;;;;;;;;4935474;28;90295;-88
2024/02/19 10:13:59;;;;;;;;;;;;;;;;;;4945245;28;90103;-85
2024/02/19 10:16:25;;;;;;;;;;;;;;;;;;4942547;28;89180;-87
2024/02/19 10:18:52;;;;;;;;;;;;;;;;;;4942527;28;89613;-89
2024/02/19 10:21:18;;;;;;;;;;;;;;;;;;4941877;28;93117;-85
2024/02/19 10:23:46;;;;;;;;;;;;;;;;;;4965465;28;90661;-88
2024/02/19 10:26:11;;;;;;;;;;;;;;;;;;4942281;28;89578;-85
2024/02/19 10:28:39;;;;;;;;;;;;;;;;;;4943573;28;89392;-88
2024/02/19 10:31:04;;;;;;;;;;;;;;;;;;4942511;28;89340;-86
2024/02/19 10:33:34;;;;;;;;;;;;;;;;;;4947261;28;88961;-95
2024/02/19 10:36:02;;;;;;;;;;;;;;;;;;4957117;28;91184;-94
2024/02/19 10:38:27;;;;;;;;;;;;;;;;;;4948415;28;93076;-94
2024/02/19 10:40:53;;;;;;;;;;;;;;;;;;4963108;28;91001;-93
2024/02/19 10:43:18;;;;;;;;;;;;;;;;;;4980011;28;89463;-94
2024/02/19 10:45:43;;;;;;;;;;;;;;;;;;4951802;28;88696;-94
2024/02/19 10:48:09;;;;;;;;;;;;;;;;;;4954474;28;89932;-94
2024/02/19 10:50:34;;;;;;;;;;;;;;;;;;4955831;28;89604;-94
2024/02/19 10:52:59;;;;;;;;;;;;;;;;;;4956333;28;89002;-87
2024/02/19 10:55:27;;;;;;;;;;;;;;;;;;4960036;28;90811;-93
2024/02/19 10:57:53;;;;;;;;;;;;;;;;;;4957548;28;89684;-91
2024/02/19 11:00:25;;;;;;;;;;;;;;;;;;4955640;28;89408;-92
2024/02/19 11:03:15;;;;;;;;;;;;;;;;;;4953933;28;89405;-92
2024/02/19 11:05:42;;;;;;;;;;;;;;;;;;4969045;28;92847;-92
2024/02/19 11:08:18;;;;;;;;;;;;;;;;;;4952384;28;90660;-92
2024/02/19 11:10:44;;;;;;;;;;;;;;;;;;4957149;28;89731;-92
2024/02/19 11:13:12;;;;;;;;;;;;;;;;;;4959602;28;92283;-89
2024/02/19 11:15:41;;;;;;;;;;;;;;;;;;4960436;28;90472;-92
2024/02/19 11:18:09;;;;;;;;;;;;;;;;;;4955202;28;88745;-91
2024/02/19 11:20:35;;;;;;;;;;;;;;;;;;4950958;28;91336;-91
2024/02/19 11:23:00;;;;;;;;;;;;;;;;;;4955876;28;89079;-91
2024/02/19 11:25:25;;;;;;;;;;;;;;;;;;4961636;28;89123;-91
2024/02/19 11:27:51;;;;;;;;;;;;;;;;;;4952155;28;89835;-91
2024/02/19 11:30:16;;;;;;;;;;;;;;;;;;4950722;28;90070;-92
2024/02/19 11:32:42;;;;;;;;;;;;;;;;;;4958932;28;92342;-94
2024/02/19 11:35:11;;;;;;;;;;;;;;;;;;4958305;28;90541;-92
2024/02/19 11:37:36;;;;;;;;;;;;;;;;;;4954313;28;89321;-94
2024/02/19 11:40:01;;;;;;;;;;;;;;;;;;4951052;28;89192;-93
2024/02/19 11:42:27;;;;;;;;;;;;;;;;;;4948577;28;89520;-91
2024/02/19 11:44:53;;;;;;;;;;;;;;;;;;4950904;28;92716;-92
2024/02/19 11:47:18;;;;;;;;;;;;;;;;;;4956316;28;91253;-92
2024/02/19 11:49:45;;;;;;;;;;;;;;;;;;4949665;28;89302;-90
2024/02/19 11:52:11;;;;;;;;;;;;;;;;;;4952105;28;89552;-93
2024/02/19 11:54:38;;;;;;;;;;;;;;;;;;4950430;28;92230;-89
2024/02/19 11:57:05;;;;;;;;;;;;;;;;;;4954221;28;89413;-90
2024/02/19 11:59:31;;;;;;;;;;;;;;;;;;4949715;28;91691;-88
2024/02/19 12:01:56;;;;;;;;;;;;;;;;;;4967894;28;90853;-89
2024/02/19 12:04:22;;;;;;;;;;;;;;;;;;4940890;28;90023;-88
2024/02/19 12:06:47;;;;;;;;;;;;;;;;;;4945021;28;89311;-93
2024/02/19 12:09:12;;;;;;;;;;;;;;;;;;4945962;28;90730;-91
2024/02/19 12:11:39;;;;;;;;;;;;;;;;;;4949679;28;90622;-89
2024/02/19 12:14:06;;;;;;;;;;;;;;;;;;4946265;28;89161;-95
2024/02/19 12:16:32;;;;;;;;;;;;;;;;;;4960109;28;90422;-95
2024/02/19 12:18:57;;;;;;;;;;;;;;;;;;4945365;28;91893;-93
2024/02/19 12:21:23;;;;;;;;;;;;;;;;;;4945816;28;91080;-95
2024/02/19 12:23:52;;;;;;;;;;;;;;;;;;4947844;28;89404;-94
2024/02/19 12:26:17;;;;;;;;;;;;;;;;;;4947532;28;91712;-94
2024/02/19 12:28:43;;;;;;;;;;;;;;;;;;4945919;28;90450;-95
2024/02/19 12:31:08;;;;;;;;;;;;;;;;;;4948975;28;90173;-95
2024/02/19 12:33:37;;;;;;;;;;;;;;;;;;4945530;28;88610;-94
2024/02/19 12:36:08;;;;;;;;;;;;;;;;;;4967164;28;89076;-96
2024/02/19 12:38:33;;;;;;;;;;;;;;;;;;4953028;28;91381;-94
2024/02/19 12:40:59;;;;;;;;;;;;;;;;;;4954485;28;90920;-95
2024/02/19 12:43:25;;;;;;;;;;;;;;;;;;4947733;28;90292;-95
2024/02/19 12:45:50;;;;;;;;;;;;;;;;;;4954299;28;89030;-93
2024/02/19 12:48:15;;;;;;;;;;;;;;;;;;4968896;28;91282;-94
2024/02/19 12:50:51;;;;;;;;;;;;;;;;;;4964916;28;91442;-91
2024/02/19 12:53:18;;;;;;;;;;;;;;;;;;4968900;28;90600;-94
2024/02/19 12:55:44;;;;;;;;;;;;;;;;;;4959333;28;90200;-93
2024/02/19 12:58:11;;;;;;;;;;;;;;;;;;4961493;28;92289;-94
2024/02/19 13:00:40;;;;;;;;;;;;;;;;;;4955920;28;91676;-93
2024/02/19 13:03:05;;;;;;;;;;;;;;;;;;4960900;28;90261;-93
2024/02/19 13:05:31;;;;;;;;;;;;;;;;;;4954696;28;89694;-93
2024/02/19 13:07:56;;;;;;;;;;;;;;;;;;4961463;28;90513;-93
2024/02/19 13:10:21;;;;;;;;;;;;;;;;;;4961053;28;89665;-92
2024/02/19 13:12:49;;;;;;;;;;;;;;;;;;4959282;28;89032;-93
2024/02/19 13:15:14;;;;;;;;;;;;;;;;;;4957241;28;89704;-92
2024/02/19 13:17:41;;;;;;;;;;;;;;;;;;4962075;28;90608;-93
2024/02/19 13:20:09;;;;;;;;;;;;;;;;;;4957562;28;92255;-92
2024/02/19 13:22:35;;;;;;;;;;;;;;;;;;4959238;28;89887;-92
2024/02/19 13:25:00;;;;;;;;;;;;;;;;;;4955423;28;89458;-89
2024/02/19 13:27:25;;;;;;;;;;;;;;;;;;4967270;28;89377;-93
2024/02/19 13:29:51;;;;;;;;;;;;;;;;;;4966197;28;91157;-91
2024/02/19 13:32:16;;;;;;;;;;;;;;;;;;4955918;28;90357;-92
2024/02/19 13:34:41;;;;;;;;;;;;;;;;;;4955521;28;89480;-93
2024/02/19 13:37:07;;;;;;;;;;;;;;;;;;4958204;28;88987;-87
2024/02/19 13:39:32;;;;;;;;;;;;;;;;;;4954531;28;89792;-89
2024/02/19 13:41:57;;;;;;;;;;;;;;;;;;4953429;28;89707;-91
2024/02/19 13:44:23;;;;;;;;;;;;;;;;;;4954068;28;90696;-93
2024/02/19 13:46:48;;;;;;;;;;;;;;;;;;4957365;28;90343;-93
2024/02/19 13:49:14;;;;;;;;;;;;;;;;;;4970728;28;89089;-92
2024/02/19 13:51:39;;;;;;;;;;;;;;;;;;4953524;28;89755;-88
2024/02/19 13:54:06;;;;;;;;;;;;;;;;;;4954994;28;90156;-93
2024/02/19 13:56:31;;;;;;;;;;;;;;;;;;4957038;28;90069;-92
2024/02/19 13:58:56;;;;;;;;;;;;;;;;;;4953066;28;89212;-92
2024/02/19 14:01:22;;;;;;;;;;;;;;;;;;4953152;28;90738;-92
2024/02/19 14:03:47;;;;;;;;;;;;;;;;;;4964014;28;89706;-91
2024/02/19 14:06:13;;;;;;;;;;;;;;;;;;4952141;28;88889;-87
2024/02/19 14:08:39;;;;;;;;;;;;;;;;;;4957732;28;89172;-93
2024/02/19 14:11:04;;;;;;;;;;;;;;;;;;4962381;28;91519;-93
2024/02/19 14:13:29;;;;;;;;;;;;;;;;;;4962384;28;89124;-93
2024/02/19 14:15:55;;;;;;;;;;;;;;;;;;4953295;28;90223;-93
2024/02/19 14:18:20;;;;;;;;;;;;;;;;;;4956957;28;89136;-92
2024/02/19 14:20:45;;;;;;;;;;;;;;;;;;4957599;28;88962;-92
2024/02/19 14:23:12;;;;;;;;;;;;;;;;;;4958701;28;90071;-88
2024/02/19 14:25:38;;;;;;;;;;;;;;;;;;4956163;28;90551;-88
2024/02/19 14:28:06;;;;;;;;;;;;;;;;;;4955644;28;88878;-92
2024/02/19 14:30:31;;;;;;;;;;;;;;;;;;4954550;28;93009;-93
2024/02/19 14:32:56;;;;;;;;;;;;;;;;;;4960258;28;89059;-93
2024/02/19 14:35:22;;;;;;;;;;;;;;;;;;4957585;28;89145;-93
2024/02/19 14:37:48;;;;;;;;;;;;;;;;;;4956598;28;90924;-93
2024/02/19 14:40:13;;;;;;;;;;;;;;;;;;4954572;28;89289;-92
2024/02/19 14:42:49;;;;;;;;;;;;;;;;;;4954687;28;89118;-87
2024/02/19 14:45:14;;;;;;;;;;;;;;;;;;4951238;28;89143;-95
2024/02/19 14:47:45;;;;;;;;;;;;;;;;;;4954441;28;89312;-93
2024/02/19 14:50:10;;;;;;;;;;;;;;;;;;4945199;28;89094;-91
2024/02/19 14:52:36;;;;;;;;;;;;;;;;;;4944491;28;89379;-93
2024/02/19 14:55:08;;;;;;;;;;;;;;;;;;4944026;28;89302;-94
2024/02/19 14:57:35;;;;;;;;;;;;;;;;;;4947375;28;88866;-94
2024/02/19 15:00:01;;;;;;;;;;;;;;;;;;4944602;28;90692;-94
2024/02/19 15:02:27;;;;;;;;;;;;;;;;;;4958864;28;91563;-92
2024/02/19 15:04:52;;;;;;;;;;;;;;;;;;4952837;28;90601;-93
2024/02/19 15:07:18;;;;;;;;;;;;;;;;;;4950541;28;89013;-93
2024/02/19 15:09:43;;;;;;;;;;;;;;;;;;4949274;28;89155;-93
2024/02/19 15:12:09;;;;;;;;;;;;;;;;;;4950856;28;92637;-93
2024/02/19 15:14:34;;;;;;;;;;;;;;;;;;4947784;28;90028;-92
2024/02/19 15:17:00;;;;;;;;;;;;;;;;;;4955306;28;89370;-94
2024/02/19 15:19:25;;;;;;;;;;;;;;;;;;4956162;28;89506;-94
2024/02/19 15:21:51;;;;;;;;;;;;;;;;;;4949990;28;91578;-94
2024/02/19 15:24:16;;;;;;;;;;;;;;;;;;4948012;28;91922;-94
2024/02/19 15:26:41;;;;;;;;;;;;;;;;;;4953579;28;89443;-96
2024/02/19 15:29:07;;;;;;;;;;;;;;;;;;4949876;28;91084;-94
2024/02/19 15:31:32;;;;;;;;;;;;;;;;;;4951585;28;89101;-94
2024/02/19 15:33:58;;;;;;;;;;;;;;;;;;4951301;28;90235;-93
2024/02/19 15:36:24;;;;;;;;;;;;;;;;;;4946410;28;92986;-95
2024/02/19 15:38:50;;;;;;;;;;;;;;;;;;4944865;28;90102;-95
2024/02/19 15:41:19;;;;;;;;;;;;;;;;;;4941538;28;92661;-92
2024/02/19 15:43:46;;;;;;;;;;;;;;;;;;4947574;28;88913;-94
2024/02/19 15:46:11;;;;;;;;;;;;;;;;;;4934887;28;88952;-91
2024/02/19 15:48:39;;;;;;;;;;;;;;;;;;4950272;28;89039;-94
2024/02/19 15:51:04;;;;;;;;;;;;;;;;;;4964925;28;90987;-94
2024/02/19 15:53:29;;;;;;;;;;;;;;;;;;4948329;28;89746;-96
2024/02/19 15:55:55;;;;;;;;;;;;;;;;;;4950905;28;92440;-94
2024/02/19 15:58:22;;;;;;;;;;;;;;;;;;4954679;28;91126;-92
2024/02/19 16:00:48;;;;;;;;;;;;;;;;;;4958610;28;93173;-95
2024/02/19 16:03:15;;;;;;;;;;;;;;;;;;4950480;28;91791;-94
2024/02/19 16:05:40;;;;;;;;;;;;;;;;;;4947221;28;88995;-95
2024/02/19 16:08:22;;;;;;;;;;;;;;;;;;4962188;28;91483;-94
2024/02/19 16:10:48;;;;;;;;;;;;;;;;;;4932507;28;92123;-95
2024/02/19 16:13:13;;;;;;;;;;;;;;;;;;4945073;28;90221;-94
2024/02/19 16:15:39;;;;;;;;;;;;;;;;;;4950127;28;88615;-90
2024/02/19 16:18:05;;;;;;;;;;;;;;;;;;4936098;28;91982;-93
2024/02/19 16:20:30;;;;;;;;;;;;;;;;;;4946744;28;89078;-93
2024/02/19 16:22:56;;;;;;;;;;;;;;;;;;4949861;28;90883;-93
2024/02/19 16:25:22;;;;;;;;;;;;;;;;;;4958599;28;89867;-94
2024/02/19 16:27:50;;;;;;;;;;;;;;;;;;4946815;28;89571;-95
2024/02/19 16:30:16;;;;;;;;;;;;;;;;;;4947280;28;90926;-95
2024/02/19 16:32:44;;;;;;;;;;;;;;;;;;4950024;28;90448;-95
2024/02/19 16:35:11;;;;;;;;;;;;;;;;;;4945802;28;89393;-96